RWZ3093 USSS-VCRI
Flight info
| Callsign | RWZ3093 |
|---|---|
| Flight time | N/A |
| Altitude | 35000 |
| Route | N0490F350 ASLIM T414 USURA R482 GUPRI T763 BUREM N993 LANOR DCT KST DCT ASLOK L154 RONVU M741 AMDAR M875 TAPIS L509 LAJAK L509 SULOM A466 ASARI J24 SAM J21 DPN Q23 AKRIB Z16 BULDI W19 BPL W20 MMV V5 AKMIL A465 SAGOR |
| Aircraft | B772/H-VGDW/C |
Departure
| Time | 2026-05-06 09:19 |
|---|---|
| Airport | Koltsovo Airport (USSS) |
Arrival
| Time | N/A |
|---|---|
| Airport | Mattala Rajapaksa International Airport (VCRI) |
| Time | Latitude | Longitude | Altitude | Speed | Heading |
|---|---|---|---|---|---|
| 2026-05-06 09:05 | 56.74918 | 60.79725 | 786 ft | 0 kts | 359° |
| 2026-05-06 09:09 | 56.74917 | 60.79725 | 786 ft | 2 kts | 359° |
| 2026-05-06 09:09 | 56.74892 | 60.79724 | 787 ft | 4 kts | 7° |
| 2026-05-06 09:09 | 56.74868 | 60.79714 | 786 ft | 4 kts | 34° |
| 2026-05-06 09:09 | 56.74857 | 60.79696 | 787 ft | 3 kts | 88° |
| 2026-05-06 09:10 | 56.74857 | 60.79691 | 787 ft | 0 kts | 91° |
| 2026-05-06 09:14 | 56.74857 | 60.79712 | 786 ft | 10 kts | 91° |
| 2026-05-06 09:14 | 56.74855 | 60.79926 | 786 ft | 18 kts | 90° |
| 2026-05-06 09:14 | 56.74849 | 60.80077 | 786 ft | 8 kts | 115° |
| 2026-05-06 09:14 | 56.74779 | 60.80125 | 787 ft | 16 kts | 170° |
| 2026-05-06 09:15 | 56.74674 | 60.80187 | 787 ft | 17 kts | 121° |
| 2026-05-06 09:15 | 56.74661 | 60.80394 | 787 ft | 17 kts | 93° |
| 2026-05-06 09:15 | 56.74661 | 60.80608 | 787 ft | 17 kts | 90° |
| 2026-05-06 09:15 | 56.74661 | 60.80822 | 786 ft | 18 kts | 90° |
| 2026-05-06 09:16 | 56.74658 | 60.81061 | 787 ft | 19 kts | 89° |
| 2026-05-06 09:16 | 56.74659 | 60.81302 | 787 ft | 19 kts | 89° |
| 2026-05-06 09:16 | 56.74661 | 60.81544 | 787 ft | 19 kts | 89° |
| 2026-05-06 09:16 | 56.74662 | 60.81785 | 786 ft | 19 kts | 90° |
| 2026-05-06 09:17 | 56.74661 | 60.82026 | 786 ft | 19 kts | 90° |
| 2026-05-06 09:17 | 56.74594 | 60.82198 | 786 ft | 19 kts | 172° |
| 2026-05-06 09:17 | 56.74464 | 60.82202 | 789 ft | 19 kts | 182° |
| 2026-05-06 09:17 | 56.74332 | 60.82183 | 786 ft | 19 kts | 184° |
| 2026-05-06 09:18 | 56.74199 | 60.82167 | 786 ft | 19 kts | 183° |
| 2026-05-06 09:18 | 56.74078 | 60.82103 | 781 ft | 19 kts | 236° |
| 2026-05-06 09:18 | 56.74071 | 60.81951 | 781 ft | 0 kts | 274° |
| 2026-05-06 09:18 | 56.74078 | 60.81785 | 781 ft | 44 kts | 274° |
| 2026-05-06 09:19 | 56.74117 | 60.80769 | 783 ft | 115 kts | 274° |
| 2026-05-06 09:19 | 56.74164 | 60.78917 | 809 ft | 173 kts | 270° |
| 2026-05-06 09:19 | 56.74205 | 60.76627 | 1416 ft | 184 kts | 272° |
| 2026-05-06 09:19 | 56.74331 | 60.74304 | 2389 ft | 186 kts | 272° |
| 2026-05-06 09:20 | 56.74479 | 60.72021 | 3144 ft | 174 kts | 272° |
| 2026-05-06 09:20 | 56.74568 | 60.69856 | 3796 ft | 171 kts | 272° |
| 2026-05-06 09:20 | 56.74654 | 60.67557 | 4099 ft | 194 kts | 270° |
| 2026-05-06 09:20 | 56.74747 | 60.64980 | 4219 ft | 219 kts | 271° |
| 2026-05-06 09:21 | 56.74668 | 60.62098 | 4373 ft | 235 kts | 251° |
| 2026-05-06 09:21 | 56.73728 | 60.59663 | 4817 ft | 245 kts | 219° |
| 2026-05-06 09:21 | 56.72182 | 60.58339 | 5407 ft | 252 kts | 194° |
| 2026-05-06 09:21 | 56.70394 | 60.58436 | 5889 ft | 266 kts | 167° |
| 2026-05-06 09:22 | 56.68737 | 60.60071 | 6374 ft | 281 kts | 140° |
| 2026-05-06 09:22 | 56.67612 | 60.63034 | 6913 ft | 292 kts | 112° |
| 2026-05-06 09:22 | 56.67413 | 60.66682 | 7533 ft | 295 kts | 79° |
| 2026-05-06 09:22 | 56.68283 | 60.70039 | 8050 ft | 298 kts | 45° |
| 2026-05-06 09:23 | 56.69852 | 60.72455 | 8496 ft | 298 kts | 36° |
| 2026-05-06 09:23 | 56.71467 | 60.74880 | 9042 ft | 299 kts | 40° |
| 2026-05-06 09:23 | 56.73017 | 60.77455 | 9550 ft | 305 kts | 42° |
| 2026-05-06 09:23 | 56.74537 | 60.80115 | 10179 ft | 300 kts | 45° |
| 2026-05-06 09:24 | 56.75661 | 60.83336 | 10426 ft | 313 kts | 74° |
| 2026-05-06 09:24 | 56.75771 | 60.87363 | 10537 ft | 330 kts | 105° |
| 2026-05-06 09:24 | 56.74751 | 60.91169 | 10665 ft | 344 kts | 133° |
| 2026-05-06 09:24 | 56.72945 | 60.94073 | 10814 ft | 360 kts | 147° |
| 2026-05-06 09:25 | 56.70763 | 60.96535 | 11100 ft | 375 kts | 153° |
| 2026-05-06 09:25 | 56.68442 | 60.98799 | 11657 ft | 383 kts | 155° |
| 2026-05-06 09:25 | 56.66049 | 61.01033 | 12365 ft | 390 kts | 155° |
| 2026-05-06 09:25 | 56.63624 | 61.03288 | 13244 ft | 393 kts | 155° |
| 2026-05-06 09:26 | 56.61172 | 61.05585 | 14018 ft | 400 kts | 154° |
| 2026-05-06 09:26 | 56.58694 | 61.07936 | 14775 ft | 404 kts | 154° |
| 2026-05-06 09:26 | 56.56205 | 61.10319 | 15622 ft | 406 kts | 154° |
| 2026-05-06 09:26 | 56.53692 | 61.12733 | 16406 ft | 410 kts | 154° |
| 2026-05-06 09:27 | 56.51156 | 61.15172 | 17200 ft | 415 kts | 154° |
| 2026-05-06 09:27 | 56.48595 | 61.17639 | 18004 ft | 419 kts | 154° |
| 2026-05-06 09:27 | 56.46012 | 61.20133 | 18706 ft | 423 kts | 154° |
| 2026-05-06 09:27 | 56.43396 | 61.22652 | 19382 ft | 428 kts | 154° |
| 2026-05-06 09:28 | 56.40753 | 61.25194 | 20077 ft | 432 kts | 154° |
| 2026-05-06 09:28 | 56.38087 | 61.27752 | 20769 ft | 436 kts | 154° |
| 2026-05-06 09:28 | 56.35399 | 61.30327 | 21428 ft | 440 kts | 154° |
| 2026-05-06 09:28 | 56.32680 | 61.32928 | 22077 ft | 444 kts | 154° |
| 2026-05-06 09:29 | 56.31133 | 61.34405 | 22427 ft | 446 kts | 154° |
| 2026-05-06 09:29 | 56.28379 | 61.37031 | 23045 ft | 450 kts | 154° |
| 2026-05-06 09:29 | 56.25603 | 61.39673 | 23602 ft | 454 kts | 154° |
| 2026-05-06 09:29 | 56.22761 | 61.42373 | 24070 ft | 458 kts | 154° |
| 2026-05-06 09:30 | 56.19972 | 61.45019 | 24547 ft | 461 kts | 154° |
| 2026-05-06 09:30 | 56.17129 | 61.47715 | 25030 ft | 463 kts | 154° |
| 2026-05-06 09:30 | 56.14276 | 61.50415 | 25515 ft | 465 kts | 154° |
| 2026-05-06 09:30 | 56.11402 | 61.53129 | 25951 ft | 468 kts | 154° |
| 2026-05-06 09:31 | 56.08506 | 61.55860 | 26342 ft | 472 kts | 154° |
| 2026-05-06 09:31 | 56.05595 | 61.58600 | 26748 ft | 475 kts | 154° |
| 2026-05-06 09:31 | 56.03654 | 61.60423 | 27022 ft | 476 kts | 154° |
| 2026-05-06 09:31 | 56.00712 | 61.63183 | 27412 ft | 479 kts | 154° |
| 2026-05-06 09:32 | 55.97758 | 61.65953 | 27791 ft | 481 kts | 154° |
| 2026-05-06 09:32 | 55.94785 | 61.68734 | 28149 ft | 483 kts | 154° |
| 2026-05-06 09:32 | 55.91790 | 61.71509 | 28456 ft | 483 kts | 156° |
| 2026-05-06 09:32 | 55.88609 | 61.73563 | 28609 ft | 485 kts | 171° |
| 2026-05-06 09:33 | 55.85312 | 61.74007 | 28789 ft | 481 kts | 181° |
| 2026-05-06 09:33 | 55.81953 | 61.74100 | 29007 ft | 485 kts | 181° |
| 2026-05-06 09:33 | 55.78573 | 61.74211 | 29310 ft | 486 kts | 180° |
| 2026-05-06 09:33 | 55.75190 | 61.74367 | 29604 ft | 487 kts | 180° |
| 2026-05-06 09:34 | 55.71794 | 61.74566 | 29871 ft | 489 kts | 180° |
| 2026-05-06 09:34 | 55.68393 | 61.74802 | 30132 ft | 490 kts | 179° |
| 2026-05-06 09:34 | 55.64993 | 61.75058 | 30437 ft | 489 kts | 179° |
| 2026-05-06 09:34 | 55.61600 | 61.75323 | 30777 ft | 487 kts | 179° |
| 2026-05-06 09:35 | 55.58222 | 61.75586 | 31110 ft | 485 kts | 179° |
| 2026-05-06 09:35 | 55.54854 | 61.75842 | 31414 ft | 484 kts | 179° |
| 2026-05-06 09:35 | 55.51485 | 61.76095 | 31709 ft | 483 kts | 179° |
| 2026-05-06 09:35 | 55.48128 | 61.76345 | 31991 ft | 482 kts | 179° |
| 2026-05-06 09:36 | 55.44780 | 61.76594 | 32296 ft | 481 kts | 179° |
| 2026-05-06 09:36 | 55.41435 | 61.76841 | 32602 ft | 480 kts | 179° |
| 2026-05-06 09:36 | 55.38097 | 61.77089 | 32906 ft | 479 kts | 179° |
| 2026-05-06 09:36 | 55.34766 | 61.77336 | 33181 ft | 478 kts | 179° |
| 2026-05-06 09:37 | 55.31444 | 61.77580 | 33457 ft | 478 kts | 179° |
| 2026-05-06 09:37 | 55.28128 | 61.77824 | 33739 ft | 477 kts | 179° |
| 2026-05-06 09:37 | 55.24808 | 61.78068 | 34014 ft | 476 kts | 179° |
| 2026-05-06 09:37 | 55.21497 | 61.78310 | 34231 ft | 476 kts | 179° |
| 2026-05-06 09:38 | 55.18185 | 61.78553 | 34441 ft | 476 kts | 180° |
| 2026-05-06 09:38 | 55.14879 | 61.78795 | 34646 ft | 476 kts | 180° |
| 2026-05-06 09:38 | 55.11566 | 61.79038 | 34837 ft | 476 kts | 180° |
| 2026-05-06 09:39 | 55.04920 | 61.79626 | 34948 ft | 480 kts | 175° |
| 2026-05-06 09:39 | 54.98489 | 61.82437 | 34975 ft | 482 kts | 161° |
| 2026-05-06 09:40 | 54.92475 | 61.87646 | 34989 ft | 485 kts | 153° |
| 2026-05-06 09:40 | 54.89512 | 61.90491 | 35092 ft | 487 kts | 153° |
| 2026-05-06 09:40 | 54.83587 | 61.96113 | 35586 ft | 484 kts | 154° |
| 2026-05-06 09:41 | 54.80617 | 61.98882 | 35797 ft | 484 kts | 154° |
| 2026-05-06 09:41 | 54.77643 | 62.01635 | 35986 ft | 485 kts | 155° |
| 2026-05-06 09:41 | 54.74667 | 62.04379 | 36175 ft | 485 kts | 155° |
| 2026-05-06 09:41 | 54.71693 | 62.07119 | 36365 ft | 485 kts | 155° |
| 2026-05-06 09:42 | 54.68707 | 62.09868 | 36554 ft | 485 kts | 155° |
| 2026-05-06 09:42 | 54.65724 | 62.12610 | 36746 ft | 485 kts | 155° |
| 2026-05-06 09:42 | 54.59310 | 62.18427 | 36930 ft | 482 kts | 160° |
| 2026-05-06 09:43 | 54.56124 | 62.20048 | 36989 ft | 474 kts | 177° |
| 2026-05-06 09:43 | 54.52865 | 62.19951 | 36987 ft | 468 kts | 194° |
| 2026-05-06 09:43 | 54.49793 | 62.18262 | 36998 ft | 463 kts | 209° |
| 2026-05-06 09:43 | 54.47019 | 62.15540 | 36979 ft | 456 kts | 208° |
| 2026-05-06 09:44 | 54.43977 | 62.13902 | 36996 ft | 465 kts | 188° |
| 2026-05-06 09:44 | 54.40733 | 62.14184 | 36987 ft | 475 kts | 168° |
| 2026-05-06 09:44 | 54.37655 | 62.16370 | 37001 ft | 485 kts | 151° |
| 2026-05-06 09:44 | 54.34943 | 62.19850 | 36998 ft | 492 kts | 140° |
| 2026-05-06 09:45 | 54.30201 | 62.28424 | 37000 ft | 498 kts | 134° |
| 2026-05-06 09:45 | 54.25630 | 62.37284 | 37005 ft | 501 kts | 135° |
| 2026-05-06 09:46 | 54.20928 | 62.46196 | 37003 ft | 501 kts | 135° |
| 2026-05-06 09:46 | 54.16223 | 62.54955 | 37003 ft | 500 kts | 136° |
| 2026-05-06 09:47 | 54.11533 | 62.63567 | 36999 ft | 496 kts | 139° |
| 2026-05-06 09:47 | 54.06236 | 62.70930 | 37008 ft | 488 kts | 150° |
| 2026-05-06 09:48 | 54.00420 | 62.76784 | 37011 ft | 484 kts | 154° |
| 2026-05-06 09:48 | 53.94579 | 62.82492 | 37011 ft | 484 kts | 154° |
| 2026-05-06 09:49 | 53.88740 | 62.88244 | 37017 ft | 484 kts | 154° |
| 2026-05-06 09:49 | 53.82957 | 62.93960 | 37016 ft | 485 kts | 154° |
| 2026-05-06 09:50 | 53.77128 | 62.99712 | 37017 ft | 485 kts | 154° |
| 2026-05-06 09:50 | 53.71291 | 63.05448 | 37018 ft | 485 kts | 154° |
| 2026-05-06 09:51 | 53.65450 | 63.11168 | 37021 ft | 486 kts | 154° |
| 2026-05-06 09:51 | 53.59604 | 63.16875 | 37020 ft | 486 kts | 154° |
| 2026-05-06 09:52 | 53.53754 | 63.22567 | 37023 ft | 486 kts | 154° |
| 2026-05-06 09:52 | 53.47900 | 63.28245 | 37024 ft | 486 kts | 154° |
| 2026-05-06 09:53 | 53.42043 | 63.33907 | 37020 ft | 486 kts | 154° |
| 2026-05-06 09:53 | 53.36180 | 63.39557 | 37031 ft | 486 kts | 155° |
| 2026-05-06 09:54 | 53.30318 | 63.45189 | 37025 ft | 486 kts | 155° |
| 2026-05-06 09:54 | 53.24459 | 63.50803 | 37026 ft | 486 kts | 155° |
| 2026-05-06 09:55 | 53.18468 | 63.55883 | 37018 ft | 479 kts | 163° |
| 2026-05-06 09:55 | 53.12148 | 63.59040 | 37020 ft | 472 kts | 172° |
| 2026-05-06 09:56 | 53.05749 | 63.61488 | 37021 ft | 472 kts | 172° |
| 2026-05-06 09:56 | 52.99356 | 63.63948 | 37024 ft | 472 kts | 172° |
| 2026-05-06 09:57 | 52.92967 | 63.66439 | 37028 ft | 471 kts | 172° |
| 2026-05-06 09:57 | 52.87665 | 63.68516 | 37032 ft | 471 kts | 172° |
| 2026-05-06 09:58 | 52.81281 | 63.71014 | 37034 ft | 471 kts | 172° |
| 2026-05-06 09:58 | 52.73871 | 63.73903 | 37040 ft | 471 kts | 172° |
| 2026-05-06 09:59 | 52.68527 | 63.75979 | 37039 ft | 470 kts | 172° |
| 2026-05-06 09:59 | 52.62164 | 63.78443 | 37041 ft | 470 kts | 172° |
| 2026-05-06 10:00 | 52.55803 | 63.80899 | 37042 ft | 469 kts | 173° |
| 2026-05-06 10:00 | 52.49462 | 63.83341 | 37040 ft | 467 kts | 173° |
| 2026-05-06 10:01 | 52.43143 | 63.85767 | 37043 ft | 466 kts | 173° |
| 2026-05-06 10:01 | 52.36839 | 63.88179 | 37044 ft | 465 kts | 173° |
| 2026-05-06 10:02 | 52.30587 | 63.90565 | 37042 ft | 464 kts | 173° |
| 2026-05-06 10:02 | 52.24314 | 63.92951 | 37162 ft | 463 kts | 173° |
| 2026-05-06 10:03 | 52.18006 | 63.95338 | 37014 ft | 467 kts | 171° |
| 2026-05-06 10:03 | 52.11684 | 63.97733 | 36955 ft | 465 kts | 173° |
| 2026-05-06 10:04 | 52.05399 | 64.00109 | 37033 ft | 463 kts | 173° |
| 2026-05-06 10:04 | 51.99120 | 64.02469 | 37039 ft | 463 kts | 173° |
| 2026-05-06 10:05 | 51.92846 | 64.04819 | 37030 ft | 463 kts | 173° |
| 2026-05-06 10:05 | 51.86569 | 64.07165 | 37032 ft | 463 kts | 173° |
| 2026-05-06 10:06 | 51.80289 | 64.09507 | 37023 ft | 463 kts | 173° |
| 2026-05-06 10:06 | 51.74012 | 64.11841 | 37026 ft | 463 kts | 173° |
| 2026-05-06 10:07 | 51.67728 | 64.14171 | 37028 ft | 463 kts | 173° |
| 2026-05-06 10:07 | 51.61444 | 64.16494 | 37019 ft | 464 kts | 173° |
| 2026-05-06 10:08 | 51.55157 | 64.18810 | 37028 ft | 464 kts | 173° |
| 2026-05-06 10:08 | 51.48865 | 64.21123 | 37021 ft | 464 kts | 173° |
| 2026-05-06 10:09 | 51.42565 | 64.23433 | 37015 ft | 464 kts | 173° |
| 2026-05-06 10:09 | 51.36275 | 64.25732 | 37021 ft | 464 kts | 173° |
| 2026-05-06 10:10 | 51.29974 | 64.28028 | 37023 ft | 464 kts | 173° |
| 2026-05-06 10:10 | 51.23684 | 64.30315 | 37023 ft | 464 kts | 173° |
| 2026-05-06 10:11 | 51.17437 | 64.32578 | 37019 ft | 463 kts | 173° |
| 2026-05-06 10:11 | 51.11109 | 64.34866 | 37024 ft | 463 kts | 173° |
| 2026-05-06 10:12 | 51.04820 | 64.37132 | 37019 ft | 463 kts | 173° |
| 2026-05-06 10:12 | 50.98574 | 64.39377 | 37019 ft | 463 kts | 173° |
| 2026-05-06 10:13 | 50.92278 | 64.41633 | 37018 ft | 464 kts | 173° |
| 2026-05-06 10:13 | 50.85989 | 64.43881 | 37021 ft | 464 kts | 173° |
| 2026-05-06 10:14 | 50.79687 | 64.46127 | 37014 ft | 464 kts | 173° |
| 2026-05-06 10:14 | 50.73384 | 64.48367 | 37019 ft | 465 kts | 173° |
| 2026-05-06 10:15 | 50.67073 | 64.50604 | 37017 ft | 465 kts | 173° |
| 2026-05-06 10:15 | 50.60752 | 64.52839 | 37016 ft | 466 kts | 173° |
| 2026-05-06 10:16 | 50.54425 | 64.55069 | 37017 ft | 466 kts | 173° |
| 2026-05-06 10:16 | 50.48085 | 64.57298 | 37017 ft | 467 kts | 173° |
| 2026-05-06 10:17 | 50.41735 | 64.59524 | 37012 ft | 468 kts | 173° |
| 2026-05-06 10:17 | 50.35377 | 64.61747 | 37013 ft | 468 kts | 173° |
| 2026-05-06 10:18 | 50.29009 | 64.63967 | 37010 ft | 469 kts | 173° |
| 2026-05-06 10:18 | 50.22640 | 64.66182 | 37012 ft | 469 kts | 172° |
| 2026-05-06 10:19 | 50.16260 | 64.68394 | 37017 ft | 470 kts | 172° |
| 2026-05-06 10:19 | 50.09882 | 64.70600 | 37002 ft | 470 kts | 172° |
| 2026-05-06 10:20 | 50.03499 | 64.72801 | 37009 ft | 470 kts | 172° |
| 2026-05-06 10:20 | 49.97113 | 64.74998 | 37007 ft | 470 kts | 172° |
| 2026-05-06 10:21 | 49.90769 | 64.77174 | 37012 ft | 470 kts | 172° |
| 2026-05-06 10:21 | 49.84331 | 64.79376 | 37016 ft | 470 kts | 172° |
| 2026-05-06 10:22 | 49.77981 | 64.81543 | 37015 ft | 470 kts | 172° |
| 2026-05-06 10:22 | 49.71588 | 64.83718 | 37019 ft | 471 kts | 172° |
| 2026-05-06 10:23 | 49.65148 | 64.85903 | 37015 ft | 471 kts | 172° |
| 2026-05-06 10:23 | 49.58747 | 64.88069 | 37024 ft | 471 kts | 172° |
| 2026-05-06 10:24 | 49.52353 | 64.90227 | 37021 ft | 470 kts | 172° |
| 2026-05-06 10:24 | 49.45958 | 64.92379 | 37026 ft | 470 kts | 172° |
| 2026-05-06 10:25 | 49.39605 | 64.94512 | 37025 ft | 470 kts | 172° |
| 2026-05-06 10:25 | 49.33213 | 64.96651 | 37031 ft | 470 kts | 172° |
| 2026-05-06 10:26 | 49.26820 | 64.98786 | 37029 ft | 470 kts | 172° |
| 2026-05-06 10:26 | 49.20423 | 65.00916 | 37030 ft | 470 kts | 172° |
| 2026-05-06 10:27 | 49.14031 | 65.03040 | 37029 ft | 470 kts | 172° |
| 2026-05-06 10:27 | 49.07638 | 65.05158 | 37031 ft | 470 kts | 172° |
| 2026-05-06 10:28 | 49.01248 | 65.07269 | 37024 ft | 470 kts | 172° |
| 2026-05-06 10:28 | 48.94852 | 65.09377 | 37024 ft | 470 kts | 171° |
| 2026-05-06 10:29 | 48.88464 | 65.11476 | 37024 ft | 470 kts | 171° |
| 2026-05-06 10:29 | 48.82064 | 65.13574 | 37025 ft | 470 kts | 171° |
| 2026-05-06 10:30 | 48.75660 | 65.15668 | 37022 ft | 471 kts | 171° |
| 2026-05-06 10:30 | 48.69253 | 65.17757 | 37021 ft | 471 kts | 171° |
| 2026-05-06 10:31 | 48.62837 | 65.19843 | 37017 ft | 472 kts | 171° |
| 2026-05-06 10:31 | 48.56418 | 65.21927 | 36966 ft | 472 kts | 172° |
| 2026-05-06 10:32 | 48.49999 | 65.24004 | 37003 ft | 472 kts | 172° |
| 2026-05-06 10:32 | 48.43563 | 65.26080 | 37018 ft | 474 kts | 172° |
| 2026-05-06 10:33 | 48.37113 | 65.28155 | 37014 ft | 475 kts | 172° |
| 2026-05-06 10:33 | 48.30647 | 65.30232 | 37007 ft | 475 kts | 172° |
| 2026-05-06 10:34 | 48.24177 | 65.32304 | 37004 ft | 476 kts | 172° |
| 2026-05-06 10:34 | 48.17703 | 65.34372 | 36996 ft | 475 kts | 172° |
| 2026-05-06 10:35 | 48.11232 | 65.36434 | 36995 ft | 475 kts | 172° |
| 2026-05-06 10:35 | 48.04765 | 65.38489 | 36991 ft | 475 kts | 172° |
| 2026-05-06 10:36 | 47.98347 | 65.40524 | 36987 ft | 474 kts | 173° |
| 2026-05-06 10:36 | 47.91892 | 65.42564 | 36984 ft | 474 kts | 173° |
| 2026-05-06 10:37 | 47.85445 | 65.44597 | 36979 ft | 474 kts | 173° |
| 2026-05-06 10:37 | 47.78996 | 65.46626 | 36973 ft | 474 kts | 173° |
| 2026-05-06 10:38 | 47.72547 | 65.48649 | 36976 ft | 473 kts | 173° |
| 2026-05-06 10:38 | 47.66100 | 65.50666 | 36976 ft | 473 kts | 173° |
| 2026-05-06 10:39 | 47.59656 | 65.52678 | 36967 ft | 473 kts | 173° |
| 2026-05-06 10:39 | 47.53340 | 65.54644 | 36971 ft | 474 kts | 173° |
| 2026-05-06 10:40 | 47.46889 | 65.56648 | 36966 ft | 474 kts | 173° |
| 2026-05-06 10:40 | 47.40431 | 65.58648 | 36974 ft | 474 kts | 173° |
| 2026-05-06 10:41 | 47.33973 | 65.60644 | 36976 ft | 474 kts | 173° |
| 2026-05-06 10:41 | 47.27511 | 65.62636 | 36968 ft | 475 kts | 173° |
| 2026-05-06 10:42 | 47.21042 | 65.64626 | 36967 ft | 475 kts | 173° |
| 2026-05-06 10:42 | 47.14570 | 65.66611 | 36968 ft | 475 kts | 173° |
| 2026-05-06 10:43 | 47.08144 | 65.68577 | 36967 ft | 475 kts | 173° |
| 2026-05-06 10:44 | 46.98435 | 65.71539 | 36969 ft | 475 kts | 173° |
| 2026-05-06 10:44 | 46.91956 | 65.73509 | 36966 ft | 475 kts | 173° |
| 2026-05-06 10:45 | 46.85484 | 65.75472 | 36967 ft | 475 kts | 173° |
| 2026-05-06 10:45 | 46.79005 | 65.77433 | 36964 ft | 475 kts | 173° |
| 2026-05-06 10:46 | 46.72523 | 65.79389 | 36956 ft | 475 kts | 173° |
| 2026-05-06 10:46 | 46.66040 | 65.81341 | 36962 ft | 476 kts | 173° |
| 2026-05-06 10:47 | 46.59558 | 65.83288 | 36963 ft | 476 kts | 173° |
| 2026-05-06 10:47 | 46.53067 | 65.85233 | 36960 ft | 476 kts | 173° |
| 2026-05-06 10:48 | 46.46581 | 65.87172 | 36961 ft | 476 kts | 173° |
| 2026-05-06 10:48 | 46.40082 | 65.89110 | 36961 ft | 477 kts | 173° |
| 2026-05-06 10:49 | 46.33577 | 65.91045 | 36960 ft | 477 kts | 173° |
| 2026-05-06 10:49 | 46.27077 | 65.92974 | 36963 ft | 477 kts | 173° |
| 2026-05-06 10:50 | 46.20608 | 65.94889 | 36961 ft | 478 kts | 173° |
| 2026-05-06 10:50 | 46.14095 | 65.96812 | 36960 ft | 478 kts | 173° |
| 2026-05-06 10:51 | 46.07576 | 65.98732 | 36960 ft | 478 kts | 173° |
| 2026-05-06 10:51 | 46.01057 | 66.00649 | 36960 ft | 478 kts | 173° |
| 2026-05-06 10:52 | 45.94534 | 66.02561 | 36960 ft | 478 kts | 173° |
| 2026-05-06 10:52 | 45.88008 | 66.04469 | 36959 ft | 479 kts | 173° |
| 2026-05-06 10:53 | 45.82581 | 66.06053 | 36963 ft | 479 kts | 173° |
| 2026-05-06 10:53 | 45.76051 | 66.07954 | 36961 ft | 479 kts | 173° |
| 2026-05-06 10:54 | 45.69509 | 66.09855 | 36962 ft | 480 kts | 173° |
| 2026-05-06 10:54 | 45.62969 | 66.11750 | 36965 ft | 480 kts | 173° |
| 2026-05-06 10:55 | 45.56415 | 66.13645 | 36963 ft | 480 kts | 173° |
| 2026-05-06 10:55 | 45.49866 | 66.15534 | 36963 ft | 480 kts | 173° |
| 2026-05-06 10:56 | 45.43310 | 66.17421 | 36966 ft | 481 kts | 173° |
| 2026-05-06 10:56 | 45.36750 | 66.19304 | 36965 ft | 481 kts | 173° |
| 2026-05-06 10:57 | 45.30188 | 66.21183 | 36968 ft | 481 kts | 172° |
| 2026-05-06 10:57 | 45.23620 | 66.23060 | 36964 ft | 482 kts | 172° |
| 2026-05-06 10:58 | 45.17044 | 66.24934 | 36965 ft | 482 kts | 172° |
| 2026-05-06 10:58 | 45.10469 | 66.26804 | 36968 ft | 482 kts | 172° |
| 2026-05-06 10:59 | 45.03885 | 66.28672 | 36963 ft | 483 kts | 172° |
| 2026-05-06 10:59 | 44.97298 | 66.30536 | 36970 ft | 483 kts | 172° |
| 2026-05-06 11:00 | 44.90711 | 66.32396 | 36962 ft | 483 kts | 172° |
| 2026-05-06 11:00 | 44.84118 | 66.34254 | 36966 ft | 483 kts | 172° |
| 2026-05-06 11:01 | 44.77562 | 66.36097 | 36966 ft | 483 kts | 172° |
| 2026-05-06 11:01 | 44.70967 | 66.37946 | 36964 ft | 483 kts | 172° |
| 2026-05-06 11:02 | 44.64369 | 66.39792 | 36967 ft | 483 kts | 172° |
| 2026-05-06 11:02 | 44.57769 | 66.41634 | 36966 ft | 483 kts | 172° |
| 2026-05-06 11:03 | 44.51172 | 66.43471 | 36960 ft | 483 kts | 172° |
| 2026-05-06 11:03 | 44.47871 | 66.44388 | 37231 ft | 483 kts | 172° |
| 2026-05-06 11:03 | 44.44568 | 66.45304 | 37117 ft | 486 kts | 172° |
| 2026-05-06 11:04 | 44.37915 | 66.47147 | 36991 ft | 488 kts | 172° |
| 2026-05-06 11:04 | 44.31270 | 66.48986 | 36966 ft | 486 kts | 172° |
| 2026-05-06 11:05 | 44.24642 | 66.50816 | 36959 ft | 485 kts | 172° |
| 2026-05-06 11:05 | 44.18033 | 66.52635 | 36964 ft | 484 kts | 172° |
| 2026-05-06 11:06 | 44.11422 | 66.54450 | 36962 ft | 484 kts | 172° |
| 2026-05-06 11:06 | 44.04806 | 66.56263 | 36965 ft | 485 kts | 172° |
| 2026-05-06 11:07 | 43.98182 | 66.58073 | 36964 ft | 485 kts | 172° |
| 2026-05-06 11:07 | 43.91546 | 66.59883 | 36960 ft | 486 kts | 172° |
| 2026-05-06 11:08 | 43.84906 | 66.61690 | 36961 ft | 487 kts | 172° |
| 2026-05-06 11:08 | 43.78296 | 66.63485 | 36968 ft | 487 kts | 172° |
| 2026-05-06 11:09 | 43.71634 | 66.65290 | 36963 ft | 488 kts | 172° |
| 2026-05-06 11:09 | 43.64970 | 66.67092 | 36960 ft | 489 kts | 172° |
| 2026-05-06 11:10 | 43.58286 | 66.68894 | 36961 ft | 489 kts | 172° |
| 2026-05-06 11:10 | 43.51603 | 66.70692 | 36963 ft | 489 kts | 172° |
| 2026-05-06 11:11 | 43.44920 | 66.72487 | 36956 ft | 490 kts | 172° |
| 2026-05-06 11:11 | 43.38226 | 66.74280 | 36958 ft | 490 kts | 172° |
| 2026-05-06 11:12 | 43.31530 | 66.76070 | 36955 ft | 490 kts | 172° |
| 2026-05-06 11:12 | 43.24834 | 66.77856 | 36961 ft | 490 kts | 172° |
| 2026-05-06 11:13 | 43.18133 | 66.79639 | 36957 ft | 491 kts | 172° |
| 2026-05-06 11:13 | 43.11424 | 66.81419 | 36958 ft | 491 kts | 172° |
| 2026-05-06 11:14 | 43.04717 | 66.83196 | 36959 ft | 491 kts | 172° |
| 2026-05-06 11:14 | 42.98004 | 66.84970 | 36957 ft | 491 kts | 172° |
| 2026-05-06 11:15 | 42.91289 | 66.86741 | 36955 ft | 492 kts | 172° |
| 2026-05-06 11:15 | 42.84570 | 66.88509 | 36957 ft | 492 kts | 172° |
| 2026-05-06 11:16 | 42.77843 | 66.90275 | 36950 ft | 492 kts | 172° |
| 2026-05-06 11:16 | 42.71115 | 66.92038 | 36951 ft | 492 kts | 172° |
| 2026-05-06 11:17 | 42.64429 | 66.93785 | 36947 ft | 493 kts | 172° |
| 2026-05-06 11:17 | 42.57688 | 66.95543 | 36948 ft | 493 kts | 172° |
| 2026-05-06 11:18 | 42.50947 | 66.97298 | 36944 ft | 493 kts | 172° |
| 2026-05-06 11:18 | 42.44206 | 66.99048 | 36949 ft | 494 kts | 172° |
| 2026-05-06 11:19 | 42.37452 | 67.00798 | 36943 ft | 494 kts | 172° |
| 2026-05-06 11:19 | 42.30697 | 67.02544 | 36944 ft | 494 kts | 172° |
| 2026-05-06 11:20 | 42.23940 | 67.04288 | 36943 ft | 495 kts | 172° |
| 2026-05-06 11:20 | 42.17176 | 67.06029 | 36939 ft | 495 kts | 172° |
| 2026-05-06 11:21 | 42.10410 | 67.07767 | 36944 ft | 495 kts | 172° |
| 2026-05-06 11:21 | 42.03640 | 67.09502 | 36941 ft | 495 kts | 172° |
| 2026-05-06 11:22 | 41.96861 | 67.11235 | 36938 ft | 496 kts | 172° |
| 2026-05-06 11:22 | 41.90082 | 67.12965 | 36944 ft | 496 kts | 172° |
| 2026-05-06 11:23 | 41.83303 | 67.14692 | 36936 ft | 496 kts | 172° |
| 2026-05-06 11:23 | 41.76567 | 67.16403 | 36945 ft | 496 kts | 172° |
| 2026-05-06 11:24 | 41.69781 | 67.18123 | 36940 ft | 496 kts | 172° |
| 2026-05-06 11:24 | 41.63002 | 67.19839 | 36940 ft | 496 kts | 172° |
| 2026-05-06 11:25 | 41.56214 | 67.21552 | 36946 ft | 496 kts | 172° |
| 2026-05-06 11:25 | 41.49426 | 67.23262 | 36935 ft | 497 kts | 173° |
| 2026-05-06 11:26 | 41.42633 | 67.24970 | 36940 ft | 497 kts | 172° |
| 2026-05-06 11:26 | 41.35837 | 67.26675 | 36942 ft | 497 kts | 173° |
| 2026-05-06 11:27 | 41.29036 | 67.28378 | 36937 ft | 497 kts | 173° |
| 2026-05-06 11:27 | 41.22230 | 67.30078 | 36944 ft | 498 kts | 173° |
| 2026-05-06 11:28 | 41.15420 | 67.31776 | 36934 ft | 498 kts | 173° |
| 2026-05-06 11:28 | 41.08581 | 67.33061 | 36938 ft | 494 kts | 180° |
| 2026-05-06 11:29 | 41.01739 | 67.32872 | 36936 ft | 491 kts | 187° |
| 2026-05-06 11:29 | 40.94919 | 67.32411 | 36938 ft | 492 kts | 186° |
| 2026-05-06 11:30 | 40.88073 | 67.31994 | 36939 ft | 492 kts | 186° |
| 2026-05-06 11:30 | 40.81226 | 67.31613 | 36938 ft | 493 kts | 186° |
| 2026-05-06 11:31 | 40.74408 | 67.31242 | 36940 ft | 494 kts | 186° |
| 2026-05-06 11:31 | 40.70931 | 67.31052 | 36831 ft | 493 kts | 186° |
| 2026-05-06 11:31 | 40.67507 | 67.30865 | 36885 ft | 492 kts | 186° |
| 2026-05-06 11:32 | 40.60667 | 67.30489 | 36946 ft | 492 kts | 186° |
| 2026-05-06 11:32 | 40.53866 | 67.30116 | 36960 ft | 493 kts | 186° |
| 2026-05-06 11:33 | 40.46964 | 67.29738 | 36962 ft | 494 kts | 186° |
| 2026-05-06 11:33 | 40.40139 | 67.29365 | 36969 ft | 494 kts | 186° |
| 2026-05-06 11:34 | 40.33258 | 67.29038 | 36974 ft | 495 kts | 185° |
| 2026-05-06 11:34 | 40.26359 | 67.28864 | 36977 ft | 496 kts | 185° |
| 2026-05-06 11:35 | 40.19453 | 67.28706 | 36982 ft | 496 kts | 185° |
| 2026-05-06 11:35 | 40.12553 | 67.28525 | 36986 ft | 496 kts | 185° |
| 2026-05-06 11:36 | 40.05656 | 67.28334 | 36987 ft | 496 kts | 185° |
| 2026-05-06 11:36 | 39.98751 | 67.28143 | 36982 ft | 496 kts | 185° |
| 2026-05-06 11:37 | 39.91848 | 67.27954 | 36994 ft | 496 kts | 185° |
| 2026-05-06 11:37 | 39.84936 | 67.27765 | 36979 ft | 497 kts | 185° |
| 2026-05-06 11:38 | 39.78024 | 67.27577 | 36987 ft | 497 kts | 185° |
| 2026-05-06 11:38 | 39.71135 | 67.27171 | 36997 ft | 494 kts | 188° |
| 2026-05-06 11:39 | 39.64280 | 67.26451 | 36992 ft | 495 kts | 188° |
| 2026-05-06 11:39 | 39.57414 | 67.25737 | 37001 ft | 495 kts | 188° |
| 2026-05-06 11:40 | 39.50540 | 67.25130 | 36999 ft | 495 kts | 188° |
| 2026-05-06 11:40 | 39.43672 | 67.24465 | 37022 ft | 497 kts | 185° |
| 2026-05-06 11:41 | 39.36736 | 67.25115 | 37034 ft | 503 kts | 175° |
| 2026-05-06 11:41 | 39.30975 | 67.26157 | 37041 ft | 503 kts | 175° |
| 2026-05-06 11:42 | 39.24031 | 67.27287 | 37073 ft | 503 kts | 177° |
| 2026-05-06 11:42 | 39.17081 | 67.27633 | 37078 ft | 499 kts | 185° |
| 2026-05-06 11:43 | 39.08992 | 67.27465 | 37081 ft | 502 kts | 184° |
| 2026-05-06 11:43 | 39.03137 | 67.27546 | 37123 ft | 502 kts | 183° |
| 2026-05-06 11:44 | 38.92656 | 67.27746 | 37106 ft | 501 kts | 183° |
| 2026-05-06 11:44 | 38.85689 | 67.27843 | 37120 ft | 500 kts | 183° |
| 2026-05-06 11:45 | 38.78735 | 67.27929 | 37128 ft | 499 kts | 183° |
| 2026-05-06 11:45 | 38.71784 | 67.28011 | 37121 ft | 499 kts | 183° |
| 2026-05-06 11:46 | 38.64832 | 67.28097 | 37126 ft | 500 kts | 183° |
| 2026-05-06 11:46 | 38.57869 | 67.28184 | 37110 ft | 500 kts | 183° |
| 2026-05-06 11:47 | 38.50902 | 67.28271 | 37098 ft | 501 kts | 183° |
| 2026-05-06 11:47 | 38.43972 | 67.28356 | 37082 ft | 501 kts | 183° |
| 2026-05-06 11:48 | 38.37002 | 67.28442 | 37058 ft | 501 kts | 183° |
| 2026-05-06 11:48 | 38.30046 | 67.28531 | 37039 ft | 499 kts | 183° |
| 2026-05-06 11:49 | 38.23097 | 67.28616 | 37030 ft | 500 kts | 183° |
| 2026-05-06 11:49 | 38.16136 | 67.28702 | 37003 ft | 501 kts | 183° |
| 2026-05-06 11:50 | 38.09159 | 67.29019 | 36985 ft | 503 kts | 181° |
| 2026-05-06 11:50 | 38.02166 | 67.29496 | 36966 ft | 503 kts | 180° |
| 2026-05-06 11:51 | 37.95169 | 67.29952 | 36949 ft | 504 kts | 181° |
| 2026-05-06 11:51 | 37.88168 | 67.30372 | 36945 ft | 503 kts | 181° |
| 2026-05-06 11:52 | 37.81175 | 67.30779 | 36926 ft | 503 kts | 181° |
| 2026-05-06 11:52 | 37.74179 | 67.31187 | 36919 ft | 503 kts | 181° |
| 2026-05-06 11:53 | 37.67183 | 67.31596 | 36912 ft | 503 kts | 181° |
| 2026-05-06 11:53 | 37.60184 | 67.32006 | 36909 ft | 504 kts | 181° |
| 2026-05-06 11:54 | 37.53181 | 67.32415 | 36905 ft | 504 kts | 181° |
| 2026-05-06 11:54 | 37.46178 | 67.32823 | 36906 ft | 504 kts | 181° |
| 2026-05-06 11:55 | 37.39179 | 67.33231 | 36913 ft | 504 kts | 181° |
| 2026-05-06 11:55 | 37.32178 | 67.33639 | 36912 ft | 504 kts | 181° |
| 2026-05-06 11:56 | 37.25225 | 67.34101 | 36909 ft | 505 kts | 176° |
| 2026-05-06 11:56 | 37.18367 | 67.36210 | 36914 ft | 511 kts | 161° |
| 2026-05-06 11:57 | 37.11991 | 67.40212 | 36915 ft | 514 kts | 152° |
| 2026-05-06 11:57 | 37.05775 | 67.44673 | 36903 ft | 515 kts | 152° |
| 2026-05-06 11:58 | 36.99533 | 67.49083 | 36900 ft | 515 kts | 153° |
| 2026-05-06 11:58 | 36.93261 | 67.53431 | 36910 ft | 516 kts | 153° |
| 2026-05-06 11:59 | 36.86979 | 67.57765 | 36910 ft | 516 kts | 153° |
| 2026-05-06 11:59 | 36.80691 | 67.62103 | 36924 ft | 516 kts | 153° |
| 2026-05-06 12:00 | 36.74402 | 67.66438 | 36930 ft | 516 kts | 153° |
| 2026-05-06 12:00 | 36.68111 | 67.70765 | 36940 ft | 517 kts | 153° |
| 2026-05-06 12:01 | 36.61816 | 67.75100 | 36952 ft | 518 kts | 153° |
| 2026-05-06 12:01 | 36.55515 | 67.79435 | 36951 ft | 517 kts | 153° |
| 2026-05-06 12:02 | 36.49220 | 67.83760 | 36966 ft | 517 kts | 153° |
| 2026-05-06 12:02 | 36.42915 | 67.88071 | 36968 ft | 518 kts | 153° |
| 2026-05-06 12:03 | 36.36595 | 67.92401 | 36991 ft | 519 kts | 153° |
| 2026-05-06 12:03 | 36.30272 | 67.96726 | 36996 ft | 519 kts | 153° |
| 2026-05-06 12:04 | 36.23947 | 68.01039 | 37002 ft | 519 kts | 153° |
| 2026-05-06 12:04 | 36.17611 | 68.05350 | 37009 ft | 519 kts | 153° |
| 2026-05-06 12:05 | 36.11296 | 68.09640 | 37007 ft | 513 kts | 153° |
| 2026-05-06 12:05 | 36.05066 | 68.13862 | 37034 ft | 514 kts | 153° |
| 2026-05-06 12:06 | 35.98777 | 68.18115 | 37050 ft | 522 kts | 153° |
| 2026-05-06 12:06 | 35.92384 | 68.22435 | 37050 ft | 526 kts | 153° |
| 2026-05-06 12:07 | 35.85960 | 68.26768 | 37049 ft | 525 kts | 153° |
| 2026-05-06 12:07 | 35.79602 | 68.31050 | 37041 ft | 516 kts | 153° |
| 2026-05-06 12:08 | 35.73301 | 68.35283 | 37055 ft | 517 kts | 153° |
| 2026-05-06 12:08 | 35.66945 | 68.39545 | 37053 ft | 523 kts | 153° |
| 2026-05-06 12:09 | 35.60543 | 68.43833 | 37048 ft | 523 kts | 153° |
| 2026-05-06 12:09 | 35.54155 | 68.48043 | 37070 ft | 519 kts | 154° |
| 2026-05-06 12:10 | 35.47786 | 68.52236 | 37080 ft | 520 kts | 153° |
| 2026-05-06 12:10 | 35.41423 | 68.56470 | 37092 ft | 521 kts | 153° |
| 2026-05-06 12:11 | 35.35037 | 68.60698 | 37105 ft | 522 kts | 153° |
| 2026-05-06 12:11 | 35.28646 | 68.64907 | 37110 ft | 521 kts | 153° |
| 2026-05-06 12:12 | 35.22256 | 68.69105 | 37098 ft | 521 kts | 153° |
| 2026-05-06 12:12 | 35.15881 | 68.73285 | 37086 ft | 519 kts | 154° |
| 2026-05-06 12:13 | 35.09514 | 68.77455 | 37064 ft | 519 kts | 153° |
| 2026-05-06 12:13 | 35.03139 | 68.81625 | 37033 ft | 521 kts | 153° |
| 2026-05-06 12:14 | 34.96738 | 68.85801 | 37007 ft | 523 kts | 153° |
| 2026-05-06 12:14 | 34.90295 | 68.90000 | 36969 ft | 526 kts | 153° |
| 2026-05-06 12:15 | 34.83825 | 68.94209 | 36943 ft | 528 kts | 153° |
| 2026-05-06 12:15 | 34.77324 | 68.98429 | 36918 ft | 530 kts | 153° |
| 2026-05-06 12:16 | 34.70824 | 69.02643 | 36889 ft | 529 kts | 153° |
| 2026-05-06 12:16 | 34.64325 | 69.06850 | 36894 ft | 529 kts | 153° |
| 2026-05-06 12:17 | 34.57824 | 69.11049 | 36884 ft | 529 kts | 153° |
| 2026-05-06 12:17 | 34.54703 | 69.13422 | 36872 ft | 530 kts | 142° |
| 2026-05-06 12:17 | 34.51973 | 69.16409 | 36891 ft | 530 kts | 132° |
| 2026-05-06 12:18 | 34.47772 | 69.23681 | 36874 ft | 526 kts | 115° |
| 2026-05-06 12:18 | 34.44513 | 69.31623 | 36887 ft | 528 kts | 114° |
| 2026-05-06 12:19 | 34.42881 | 69.35612 | 37018 ft | 530 kts | 114° |
| 2026-05-06 12:19 | 34.41226 | 69.39595 | 37298 ft | 529 kts | 115° |
| 2026-05-06 12:19 | 34.39555 | 69.43556 | 37557 ft | 528 kts | 115° |
| 2026-05-06 12:19 | 34.37867 | 69.47517 | 37733 ft | 530 kts | 115° |
| 2026-05-06 12:20 | 34.36167 | 69.51484 | 37911 ft | 531 kts | 115° |
| 2026-05-06 12:20 | 34.34461 | 69.55455 | 38098 ft | 532 kts | 115° |
| 2026-05-06 12:20 | 34.32779 | 69.59370 | 38303 ft | 532 kts | 115° |
| 2026-05-06 12:20 | 34.31070 | 69.63347 | 38545 ft | 533 kts | 115° |
| 2026-05-06 12:21 | 34.29367 | 69.67309 | 38797 ft | 531 kts | 115° |
| 2026-05-06 12:21 | 34.27656 | 69.71286 | 38813 ft | 534 kts | 115° |
| 2026-05-06 12:21 | 34.24221 | 69.79267 | 38875 ft | 536 kts | 115° |
| 2026-05-06 12:22 | 34.20770 | 69.87266 | 38870 ft | 537 kts | 115° |
| 2026-05-06 12:22 | 34.17306 | 69.95270 | 38855 ft | 538 kts | 115° |
| 2026-05-06 12:23 | 34.13827 | 70.03253 | 38849 ft | 536 kts | 115° |
| 2026-05-06 12:23 | 34.10348 | 70.11204 | 38859 ft | 535 kts | 116° |
| 2026-05-06 12:24 | 34.06865 | 70.19161 | 38851 ft | 537 kts | 116° |
| 2026-05-06 12:24 | 34.03371 | 70.27128 | 38846 ft | 537 kts | 116° |
| 2026-05-06 12:25 | 33.99887 | 70.35057 | 38853 ft | 533 kts | 116° |
| 2026-05-06 12:25 | 33.96410 | 70.42950 | 38857 ft | 533 kts | 116° |
| 2026-05-06 12:26 | 33.92366 | 70.50440 | 38850 ft | 535 kts | 127° |
| 2026-05-06 12:26 | 33.87331 | 70.56993 | 38861 ft | 533 kts | 136° |
| 2026-05-06 12:27 | 33.81898 | 70.63049 | 38859 ft | 528 kts | 137° |
| 2026-05-06 12:27 | 33.76591 | 70.68977 | 38860 ft | 522 kts | 137° |
| 2026-05-06 12:28 | 33.71267 | 70.74999 | 38856 ft | 529 kts | 136° |
| 2026-05-06 12:28 | 33.66796 | 70.80070 | 38846 ft | 534 kts | 136° |
| 2026-05-06 12:29 | 33.61366 | 70.86213 | 38844 ft | 538 kts | 136° |
| 2026-05-06 12:29 | 33.55903 | 70.92378 | 38828 ft | 539 kts | 136° |
| 2026-05-06 12:30 | 33.50961 | 70.98969 | 38797 ft | 529 kts | 115° |
| 2026-05-06 12:30 | 33.49560 | 71.03006 | 38795 ft | 524 kts | 102° |
| 2026-05-06 12:30 | 33.48914 | 71.07269 | 38799 ft | 518 kts | 88° |
| 2026-05-06 12:31 | 33.49423 | 71.15758 | 38789 ft | 513 kts | 79° |
| 2026-05-06 12:31 | 33.50086 | 71.24312 | 38771 ft | 518 kts | 80° |
| 2026-05-06 12:32 | 33.50656 | 71.32933 | 38765 ft | 521 kts | 81° |
| 2026-05-06 12:32 | 33.51176 | 71.41554 | 38762 ft | 514 kts | 81° |
| 2026-05-06 12:33 | 33.51683 | 71.50038 | 38760 ft | 509 kts | 80° |
| 2026-05-06 12:33 | 33.52197 | 71.58490 | 38759 ft | 509 kts | 80° |
| 2026-05-06 12:34 | 33.52706 | 71.66957 | 38745 ft | 509 kts | 80° |
| 2026-05-06 12:34 | 33.53207 | 71.75429 | 38753 ft | 510 kts | 81° |
| 2026-05-06 12:35 | 33.53111 | 71.83893 | 38751 ft | 520 kts | 97° |
| 2026-05-06 12:35 | 33.50550 | 71.92128 | 38741 ft | 531 kts | 119° |
| 2026-05-06 12:36 | 33.46526 | 71.99497 | 38748 ft | 533 kts | 122° |
| 2026-05-06 12:36 | 33.42381 | 72.06872 | 38749 ft | 534 kts | 121° |
| 2026-05-06 12:37 | 33.38295 | 72.14314 | 38747 ft | 532 kts | 121° |
| 2026-05-06 12:37 | 33.36303 | 72.17988 | 38737 ft | 520 kts | 121° |
| 2026-05-06 12:37 | 33.34346 | 72.21611 | 38752 ft | 521 kts | 121° |
| 2026-05-06 12:38 | 33.30386 | 72.28944 | 38764 ft | 528 kts | 121° |
| 2026-05-06 12:38 | 33.26367 | 72.36356 | 38775 ft | 534 kts | 121° |
| 2026-05-06 12:39 | 33.22300 | 72.43828 | 38771 ft | 538 kts | 121° |
| 2026-05-06 12:39 | 33.18209 | 72.51326 | 38767 ft | 540 kts | 121° |
| 2026-05-06 12:40 | 33.14131 | 72.58783 | 38774 ft | 540 kts | 121° |
| 2026-05-06 12:40 | 33.10026 | 72.66279 | 38775 ft | 538 kts | 121° |
| 2026-05-06 12:41 | 33.05933 | 72.73740 | 38782 ft | 536 kts | 122° |
| 2026-05-06 12:41 | 33.01857 | 72.81153 | 38785 ft | 533 kts | 122° |
| 2026-05-06 12:42 | 32.97784 | 72.88545 | 38788 ft | 532 kts | 122° |
| 2026-05-06 12:42 | 32.93729 | 72.95893 | 38791 ft | 531 kts | 122° |
| 2026-05-06 12:43 | 32.89665 | 73.03241 | 38789 ft | 531 kts | 122° |
| 2026-05-06 12:43 | 32.85596 | 73.10587 | 38791 ft | 532 kts | 122° |
| 2026-05-06 12:44 | 32.81544 | 73.17891 | 38786 ft | 533 kts | 122° |
| 2026-05-06 12:44 | 32.77188 | 73.25043 | 38776 ft | 535 kts | 131° |
| 2026-05-06 12:45 | 32.71888 | 73.31254 | 38780 ft | 536 kts | 142° |
| 2026-05-06 12:46 | 32.63039 | 73.39387 | 38770 ft | 537 kts | 143° |
| 2026-05-06 12:46 | 32.57123 | 73.44798 | 38771 ft | 538 kts | 143° |
| 2026-05-06 12:47 | 32.51217 | 73.50259 | 38770 ft | 538 kts | 143° |
| 2026-05-06 12:47 | 32.45356 | 73.55695 | 38770 ft | 538 kts | 143° |
| 2026-05-06 12:48 | 32.39455 | 73.61157 | 38767 ft | 539 kts | 143° |
| 2026-05-06 12:48 | 32.33547 | 73.66611 | 38767 ft | 539 kts | 143° |
| 2026-05-06 12:49 | 32.27629 | 73.72064 | 38763 ft | 539 kts | 143° |
| 2026-05-06 12:49 | 32.21712 | 73.77506 | 38768 ft | 539 kts | 143° |
| 2026-05-06 12:50 | 32.15787 | 73.82946 | 38762 ft | 539 kts | 143° |
| 2026-05-06 12:50 | 32.09860 | 73.88379 | 38761 ft | 539 kts | 143° |
| 2026-05-06 12:51 | 32.03926 | 73.93809 | 38762 ft | 539 kts | 143° |
| 2026-05-06 12:51 | 31.97999 | 73.99224 | 38757 ft | 539 kts | 143° |
| 2026-05-06 12:52 | 31.92069 | 74.04633 | 38752 ft | 539 kts | 144° |
| 2026-05-06 12:52 | 31.86179 | 74.09996 | 38749 ft | 539 kts | 144° |
| 2026-05-06 12:53 | 31.80208 | 74.15424 | 38743 ft | 539 kts | 144° |
| 2026-05-06 12:53 | 31.74274 | 74.20809 | 38740 ft | 539 kts | 144° |
| 2026-05-06 12:54 | 31.68382 | 74.26148 | 38743 ft | 539 kts | 144° |
| 2026-05-06 12:54 | 31.62440 | 74.31523 | 38742 ft | 539 kts | 144° |
| 2026-05-06 12:55 | 31.56491 | 74.36895 | 38753 ft | 540 kts | 144° |
| 2026-05-06 12:55 | 31.50534 | 74.42267 | 38745 ft | 540 kts | 144° |
| 2026-05-06 12:56 | 31.44567 | 74.47640 | 38749 ft | 541 kts | 144° |
| 2026-05-06 12:56 | 31.38592 | 74.53013 | 38746 ft | 542 kts | 144° |
| 2026-05-06 12:57 | 31.32712 | 74.58541 | 38745 ft | 543 kts | 139° |
| 2026-05-06 12:57 | 31.27208 | 74.64607 | 38743 ft | 544 kts | 137° |
| 2026-05-06 12:58 | 31.21773 | 74.70679 | 38737 ft | 544 kts | 138° |
| 2026-05-06 12:58 | 31.16269 | 74.76758 | 38739 ft | 544 kts | 138° |
| 2026-05-06 12:59 | 31.10748 | 74.82807 | 38738 ft | 545 kts | 138° |
| 2026-05-06 12:59 | 31.05217 | 74.88852 | 38739 ft | 545 kts | 138° |
| 2026-05-06 13:00 | 30.99680 | 74.94901 | 38739 ft | 545 kts | 138° |
| 2026-05-06 13:00 | 30.94144 | 75.00941 | 38744 ft | 545 kts | 138° |
| 2026-05-06 13:01 | 30.88610 | 75.06970 | 38746 ft | 545 kts | 138° |
| 2026-05-06 13:01 | 30.83073 | 75.12993 | 38747 ft | 545 kts | 139° |
| 2026-05-06 13:02 | 30.77341 | 75.18649 | 38754 ft | 542 kts | 146° |
| 2026-05-06 13:02 | 30.71216 | 75.23777 | 38747 ft | 542 kts | 147° |
| 2026-05-06 13:03 | 30.65070 | 75.28868 | 38749 ft | 543 kts | 147° |
| 2026-05-06 13:03 | 30.58940 | 75.34005 | 38752 ft | 543 kts | 147° |
| 2026-05-06 13:04 | 30.52825 | 75.39159 | 38753 ft | 544 kts | 147° |
| 2026-05-06 13:04 | 30.46699 | 75.44319 | 38758 ft | 544 kts | 147° |
| 2026-05-06 13:05 | 30.40569 | 75.49468 | 38757 ft | 544 kts | 147° |
| 2026-05-06 13:05 | 30.34470 | 75.54581 | 38753 ft | 544 kts | 147° |
| 2026-05-06 13:06 | 30.28342 | 75.59709 | 38756 ft | 544 kts | 147° |
| 2026-05-06 13:06 | 30.22209 | 75.64834 | 38754 ft | 543 kts | 147° |
| 2026-05-06 13:07 | 30.16085 | 75.69944 | 38754 ft | 542 kts | 147° |
| 2026-05-06 13:07 | 30.09966 | 75.75040 | 38758 ft | 542 kts | 147° |
| 2026-05-06 13:08 | 30.03850 | 75.80127 | 38759 ft | 541 kts | 147° |
| 2026-05-06 13:08 | 29.97739 | 75.85204 | 38764 ft | 541 kts | 147° |
| 2026-05-06 13:09 | 29.91625 | 75.90275 | 38760 ft | 541 kts | 147° |
| 2026-05-06 13:09 | 29.85511 | 75.95340 | 38762 ft | 541 kts | 147° |
| 2026-05-06 13:10 | 29.79399 | 76.00414 | 38763 ft | 542 kts | 147° |
| 2026-05-06 13:10 | 29.73354 | 76.05527 | 38766 ft | 542 kts | 147° |
| 2026-05-06 13:11 | 29.67286 | 76.10682 | 38768 ft | 542 kts | 147° |
| 2026-05-06 13:11 | 29.61207 | 76.15824 | 38762 ft | 542 kts | 147° |
| 2026-05-06 13:12 | 29.55125 | 76.20952 | 38766 ft | 542 kts | 147° |
| 2026-05-06 13:12 | 29.49040 | 76.26071 | 38767 ft | 542 kts | 147° |
| 2026-05-06 13:13 | 29.42947 | 76.31191 | 38774 ft | 542 kts | 147° |
| 2026-05-06 13:13 | 29.36897 | 76.36267 | 38770 ft | 542 kts | 147° |
| 2026-05-06 13:14 | 29.30803 | 76.41373 | 38763 ft | 542 kts | 147° |
| 2026-05-06 13:14 | 29.24714 | 76.46467 | 38758 ft | 542 kts | 147° |
| 2026-05-06 13:15 | 29.18623 | 76.51556 | 38769 ft | 542 kts | 147° |
| 2026-05-06 13:15 | 29.12532 | 76.56635 | 38770 ft | 542 kts | 147° |
| 2026-05-06 13:16 | 29.06437 | 76.61712 | 38765 ft | 542 kts | 148° |
| 2026-05-06 13:16 | 29.01370 | 76.65927 | 38767 ft | 542 kts | 148° |
| 2026-05-06 13:17 | 28.95277 | 76.70990 | 38766 ft | 541 kts | 148° |
| 2026-05-06 13:17 | 28.88202 | 76.76860 | 38766 ft | 541 kts | 148° |
| 2026-05-06 13:18 | 28.82136 | 76.81948 | 38774 ft | 542 kts | 145° |
| 2026-05-06 13:18 | 28.77427 | 76.86782 | 38774 ft | 545 kts | 139° |
| 2026-05-06 13:19 | 28.72025 | 76.92778 | 38776 ft | 545 kts | 139° |
| 2026-05-06 13:19 | 28.66559 | 76.98751 | 38772 ft | 544 kts | 140° |
| 2026-05-06 13:20 | 28.61009 | 77.04569 | 38765 ft | 537 kts | 149° |
| 2026-05-06 13:20 | 28.57779 | 77.06600 | 38772 ft | 524 kts | 166° |
| 2026-05-06 13:20 | 28.54296 | 77.07619 | 38785 ft | 512 kts | 179° |
| 2026-05-06 13:20 | 28.50766 | 77.07842 | 38778 ft | 503 kts | 191° |
| 2026-05-06 13:21 | 28.47377 | 77.07206 | 38779 ft | 489 kts | 201° |
| 2026-05-06 13:21 | 28.40725 | 77.05333 | 38779 ft | 495 kts | 201° |
| 2026-05-06 13:22 | 28.33983 | 77.03507 | 38779 ft | 500 kts | 200° |
| 2026-05-06 13:22 | 28.27187 | 77.01741 | 38769 ft | 500 kts | 200° |
| 2026-05-06 13:23 | 28.20511 | 77.00037 | 38755 ft | 490 kts | 200° |
| 2026-05-06 13:23 | 28.13850 | 76.98326 | 38775 ft | 491 kts | 200° |
| 2026-05-06 13:24 | 28.07188 | 76.96612 | 38768 ft | 491 kts | 200° |
| 2026-05-06 13:24 | 28.00518 | 76.94897 | 38774 ft | 491 kts | 200° |
| 2026-05-06 13:25 | 27.93843 | 76.93187 | 38773 ft | 492 kts | 199° |
| 2026-05-06 13:25 | 27.87163 | 76.91478 | 38771 ft | 493 kts | 200° |
| 2026-05-06 13:26 | 27.80470 | 76.89767 | 38777 ft | 493 kts | 200° |
| 2026-05-06 13:26 | 27.73778 | 76.88058 | 38777 ft | 493 kts | 200° |
| 2026-05-06 13:27 | 27.67092 | 76.86354 | 38779 ft | 492 kts | 200° |
| 2026-05-06 13:27 | 27.60413 | 76.84653 | 38780 ft | 492 kts | 200° |
| 2026-05-06 13:28 | 27.53740 | 76.82956 | 38778 ft | 491 kts | 200° |
| 2026-05-06 13:28 | 27.47121 | 76.81274 | 38782 ft | 490 kts | 200° |
| 2026-05-06 13:29 | 27.40339 | 76.80059 | 38771 ft | 499 kts | 191° |
| 2026-05-06 13:29 | 27.33346 | 76.80134 | 38780 ft | 505 kts | 184° |
| 2026-05-06 13:30 | 27.26323 | 76.80519 | 38780 ft | 505 kts | 184° |
| 2026-05-06 13:30 | 27.19299 | 76.80888 | 38782 ft | 505 kts | 184° |
| 2026-05-06 13:31 | 27.12266 | 76.81216 | 38771 ft | 505 kts | 185° |
| 2026-05-06 13:31 | 27.05242 | 76.81526 | 38776 ft | 504 kts | 185° |
| 2026-05-06 13:32 | 26.98227 | 76.81835 | 38776 ft | 504 kts | 185° |
| 2026-05-06 13:33 | 26.83770 | 76.82475 | 38789 ft | 504 kts | 185° |
| 2026-05-06 13:33 | 26.76758 | 76.82786 | 38801 ft | 504 kts | 185° |
| 2026-05-06 13:34 | 26.69739 | 76.83097 | 38798 ft | 504 kts | 185° |
| 2026-05-06 13:34 | 26.62766 | 76.83406 | 38806 ft | 504 kts | 185° |
| 2026-05-06 13:35 | 26.55753 | 76.83715 | 38808 ft | 504 kts | 185° |
| 2026-05-06 13:35 | 26.48733 | 76.84025 | 38808 ft | 504 kts | 185° |
| 2026-05-06 13:36 | 26.41719 | 76.84334 | 38810 ft | 504 kts | 185° |
| 2026-05-06 13:36 | 26.34708 | 76.84643 | 38811 ft | 504 kts | 185° |
| 2026-05-06 13:37 | 26.27699 | 76.84951 | 38804 ft | 504 kts | 185° |
| 2026-05-06 13:37 | 26.20690 | 76.85259 | 38800 ft | 504 kts | 185° |
| 2026-05-06 13:38 | 26.13692 | 76.85565 | 38801 ft | 503 kts | 185° |
| 2026-05-06 13:38 | 26.06736 | 76.85870 | 38809 ft | 503 kts | 185° |
| 2026-05-06 13:39 | 25.99747 | 76.86177 | 38810 ft | 503 kts | 185° |
| 2026-05-06 13:39 | 25.92756 | 76.86482 | 38814 ft | 503 kts | 185° |
| 2026-05-06 13:40 | 25.85765 | 76.86787 | 38817 ft | 502 kts | 185° |
| 2026-05-06 13:40 | 25.78778 | 76.87092 | 38812 ft | 502 kts | 185° |
| 2026-05-06 13:41 | 25.71788 | 76.87396 | 38811 ft | 502 kts | 185° |
| 2026-05-06 13:41 | 25.64800 | 76.87700 | 38809 ft | 502 kts | 185° |
| 2026-05-06 13:42 | 25.57821 | 76.88003 | 38810 ft | 502 kts | 185° |
| 2026-05-06 13:42 | 25.50887 | 76.88304 | 38811 ft | 501 kts | 185° |
| 2026-05-06 13:43 | 25.43921 | 76.88606 | 38812 ft | 501 kts | 185° |
| 2026-05-06 13:43 | 25.36946 | 76.88909 | 38816 ft | 501 kts | 185° |
| 2026-05-06 13:44 | 25.29977 | 76.89210 | 38809 ft | 501 kts | 185° |
| 2026-05-06 13:44 | 25.23009 | 76.89512 | 38810 ft | 501 kts | 185° |
| 2026-05-06 13:45 | 25.16043 | 76.89813 | 38809 ft | 501 kts | 185° |
| 2026-05-06 13:45 | 25.05636 | 76.90263 | 38813 ft | 500 kts | 185° |
| 2026-05-06 13:46 | 24.98672 | 76.90563 | 38813 ft | 500 kts | 185° |
| 2026-05-06 13:46 | 24.91714 | 76.90868 | 38815 ft | 500 kts | 185° |
| 2026-05-06 13:47 | 24.85931 | 76.91125 | 38816 ft | 500 kts | 185° |
| 2026-05-06 13:47 | 24.78981 | 76.91433 | 38814 ft | 500 kts | 185° |
| 2026-05-06 13:48 | 24.72024 | 76.91741 | 38810 ft | 500 kts | 185° |
| 2026-05-06 13:48 | 24.65074 | 76.92049 | 38815 ft | 499 kts | 185° |
| 2026-05-06 13:49 | 24.58130 | 76.92355 | 38813 ft | 499 kts | 185° |
| 2026-05-06 13:49 | 24.51187 | 76.92663 | 38808 ft | 499 kts | 185° |
| 2026-05-06 13:50 | 24.44231 | 76.93021 | 38809 ft | 503 kts | 181° |
| 2026-05-06 13:50 | 24.37336 | 76.94419 | 38809 ft | 514 kts | 170° |
| 2026-05-06 13:51 | 24.30508 | 76.96880 | 38807 ft | 517 kts | 167° |
| 2026-05-06 13:51 | 24.23695 | 76.99429 | 38813 ft | 517 kts | 167° |
| 2026-05-06 13:52 | 24.16875 | 77.01933 | 38812 ft | 516 kts | 168° |
| 2026-05-06 13:52 | 24.10039 | 77.04404 | 38808 ft | 516 kts | 168° |
| 2026-05-06 13:53 | 24.03260 | 77.06843 | 38813 ft | 516 kts | 168° |
| 2026-05-06 13:53 | 23.96440 | 77.09296 | 38809 ft | 516 kts | 168° |
| 2026-05-06 13:54 | 23.89625 | 77.11748 | 38805 ft | 515 kts | 168° |
| 2026-05-06 13:54 | 23.82823 | 77.14193 | 38811 ft | 514 kts | 168° |
| 2026-05-06 13:55 | 23.76017 | 77.16637 | 38811 ft | 514 kts | 168° |
| 2026-05-06 13:55 | 23.69229 | 77.19071 | 38811 ft | 513 kts | 168° |
| 2026-05-06 13:56 | 23.62441 | 77.21502 | 38808 ft | 513 kts | 168° |
| 2026-05-06 13:56 | 23.55691 | 77.23918 | 38814 ft | 513 kts | 168° |
| 2026-05-06 13:57 | 23.48914 | 77.26341 | 38819 ft | 512 kts | 168° |
| 2026-05-06 13:57 | 23.42143 | 77.28759 | 38821 ft | 512 kts | 168° |
| 2026-05-06 13:58 | 23.35364 | 77.31180 | 38827 ft | 512 kts | 168° |
| 2026-05-06 13:58 | 23.28589 | 77.33552 | 38835 ft | 509 kts | 171° |
| 2026-05-06 13:59 | 23.21716 | 77.35116 | 38827 ft | 502 kts | 176° |
| 2026-05-06 13:59 | 23.14829 | 77.36407 | 38822 ft | 502 kts | 176° |
| 2026-05-06 14:00 | 23.07939 | 77.37720 | 38817 ft | 503 kts | 176° |
| 2026-05-06 14:00 | 23.01044 | 77.39071 | 38813 ft | 504 kts | 176° |
| 2026-05-06 14:01 | 22.94188 | 77.40427 | 38803 ft | 504 kts | 176° |
| 2026-05-06 14:01 | 22.87294 | 77.41788 | 38789 ft | 503 kts | 176° |
| 2026-05-06 14:02 | 22.80400 | 77.43147 | 38791 ft | 503 kts | 176° |
| 2026-05-06 14:02 | 22.73515 | 77.44501 | 38782 ft | 502 kts | 176° |
| 2026-05-06 14:03 | 22.66628 | 77.45853 | 38782 ft | 502 kts | 176° |
| 2026-05-06 14:03 | 22.59815 | 77.47190 | 38787 ft | 501 kts | 176° |
| 2026-05-06 14:04 | 22.52942 | 77.48537 | 38785 ft | 501 kts | 176° |
| 2026-05-06 14:04 | 22.46093 | 77.49878 | 38786 ft | 500 kts | 176° |
| 2026-05-06 14:05 | 22.39231 | 77.51221 | 38785 ft | 500 kts | 176° |
| 2026-05-06 14:05 | 22.32385 | 77.52559 | 38791 ft | 500 kts | 176° |
| 2026-05-06 14:06 | 22.25540 | 77.53896 | 38789 ft | 500 kts | 176° |
| 2026-05-06 14:06 | 22.18736 | 77.55225 | 38793 ft | 500 kts | 176° |
| 2026-05-06 14:07 | 22.11897 | 77.56559 | 38795 ft | 499 kts | 176° |
| 2026-05-06 14:07 | 22.05061 | 77.57877 | 38793 ft | 499 kts | 176° |
| 2026-05-06 14:08 | 21.98229 | 77.59185 | 38798 ft | 498 kts | 176° |
| 2026-05-06 14:08 | 21.91396 | 77.60496 | 38801 ft | 498 kts | 176° |
| 2026-05-06 14:09 | 21.84567 | 77.61807 | 38805 ft | 498 kts | 176° |
| 2026-05-06 14:09 | 21.77740 | 77.63116 | 38811 ft | 498 kts | 176° |
| 2026-05-06 14:10 | 21.70955 | 77.64417 | 38812 ft | 498 kts | 175° |
| 2026-05-06 14:10 | 21.64133 | 77.65723 | 38809 ft | 498 kts | 175° |
| 2026-05-06 14:11 | 21.57302 | 77.67031 | 38810 ft | 498 kts | 175° |
| 2026-05-06 14:11 | 21.50474 | 77.68337 | 38807 ft | 498 kts | 175° |
| 2026-05-06 14:12 | 21.43654 | 77.69693 | 38806 ft | 499 kts | 175° |
| 2026-05-06 14:12 | 21.36830 | 77.71078 | 38806 ft | 499 kts | 175° |
| 2026-05-06 14:13 | 21.30010 | 77.72456 | 38792 ft | 499 kts | 175° |
| 2026-05-06 14:13 | 21.23235 | 77.73818 | 38794 ft | 498 kts | 175° |
| 2026-05-06 14:14 | 21.16427 | 77.75183 | 38787 ft | 497 kts | 174° |
| 2026-05-06 14:14 | 21.09629 | 77.76546 | 38782 ft | 497 kts | 174° |
| 2026-05-06 14:15 | 21.02838 | 77.77907 | 38782 ft | 496 kts | 174° |
| 2026-05-06 14:15 | 20.96053 | 77.79267 | 38777 ft | 496 kts | 174° |
| 2026-05-06 14:16 | 20.89276 | 77.80630 | 38778 ft | 495 kts | 174° |
| 2026-05-06 14:16 | 20.82509 | 77.82040 | 38777 ft | 495 kts | 174° |
| 2026-05-06 14:17 | 20.75751 | 77.83454 | 38775 ft | 495 kts | 174° |
| 2026-05-06 14:17 | 20.68997 | 77.84857 | 38777 ft | 494 kts | 174° |
| 2026-05-06 14:18 | 20.62226 | 77.86137 | 38773 ft | 493 kts | 175° |
| 2026-05-06 14:18 | 20.55463 | 77.87350 | 38776 ft | 493 kts | 175° |
| 2026-05-06 14:19 | 20.48702 | 77.88610 | 38777 ft | 493 kts | 174° |
| 2026-05-06 14:19 | 20.41950 | 77.89924 | 38779 ft | 493 kts | 174° |
| 2026-05-06 14:20 | 20.35197 | 77.91246 | 38776 ft | 493 kts | 174° |
| 2026-05-06 14:20 | 20.28459 | 77.92558 | 38775 ft | 492 kts | 174° |
| 2026-05-06 14:21 | 20.21763 | 77.93855 | 38772 ft | 492 kts | 174° |
| 2026-05-06 14:21 | 20.14982 | 77.95166 | 38782 ft | 492 kts | 174° |
| 2026-05-06 14:22 | 20.08297 | 77.96458 | 38793 ft | 492 kts | 174° |
| 2026-05-06 14:22 | 20.01555 | 77.97761 | 38775 ft | 492 kts | 174° |
| 2026-05-06 14:23 | 19.94814 | 77.99062 | 38779 ft | 492 kts | 173° |
| 2026-05-06 14:23 | 19.88076 | 78.00362 | 38777 ft | 492 kts | 173° |
| 2026-05-06 14:24 | 19.81336 | 78.01661 | 38784 ft | 492 kts | 173° |
| 2026-05-06 14:24 | 19.74600 | 78.02958 | 38794 ft | 492 kts | 173° |
| 2026-05-06 14:25 | 19.67865 | 78.04253 | 38798 ft | 492 kts | 173° |
| 2026-05-06 14:25 | 19.61140 | 78.05545 | 38797 ft | 491 kts | 173° |
| 2026-05-06 14:26 | 19.54430 | 78.06833 | 38804 ft | 490 kts | 173° |
| 2026-05-06 14:26 | 19.47726 | 78.08120 | 38812 ft | 489 kts | 173° |
| 2026-05-06 14:27 | 19.41021 | 78.09406 | 38811 ft | 489 kts | 173° |
| 2026-05-06 14:27 | 19.34372 | 78.10681 | 38816 ft | 489 kts | 173° |
| 2026-05-06 14:28 | 19.27676 | 78.11965 | 38812 ft | 489 kts | 173° |
| 2026-05-06 14:28 | 19.20976 | 78.13163 | 38811 ft | 488 kts | 175° |
| 2026-05-06 14:29 | 19.14250 | 78.14072 | 38812 ft | 487 kts | 176° |
| 2026-05-06 14:29 | 19.07519 | 78.14946 | 38806 ft | 488 kts | 175° |
| 2026-05-06 14:30 | 19.00784 | 78.15862 | 38808 ft | 488 kts | 175° |
| 2026-05-06 14:30 | 18.94044 | 78.16804 | 38813 ft | 488 kts | 175° |
| 2026-05-06 14:31 | 18.87309 | 78.17749 | 38813 ft | 488 kts | 175° |
| 2026-05-06 14:31 | 18.80568 | 78.18692 | 38820 ft | 489 kts | 175° |
| 2026-05-06 14:32 | 18.73878 | 78.19626 | 38818 ft | 489 kts | 175° |
| 2026-05-06 14:32 | 18.67128 | 78.20567 | 38831 ft | 489 kts | 175° |
| 2026-05-06 14:33 | 18.60379 | 78.21507 | 38832 ft | 489 kts | 175° |
| 2026-05-06 14:33 | 18.53628 | 78.22447 | 38828 ft | 489 kts | 175° |
| 2026-05-06 14:34 | 18.46885 | 78.23385 | 38840 ft | 489 kts | 175° |
| 2026-05-06 14:34 | 18.40141 | 78.24322 | 38841 ft | 489 kts | 175° |
| 2026-05-06 14:35 | 18.33394 | 78.25259 | 38848 ft | 489 kts | 175° |
| 2026-05-06 14:35 | 18.26652 | 78.26195 | 38855 ft | 489 kts | 175° |
| 2026-05-06 14:36 | 18.19911 | 78.27130 | 38852 ft | 489 kts | 175° |
| 2026-05-06 14:36 | 18.13170 | 78.28065 | 38854 ft | 489 kts | 175° |
| 2026-05-06 14:37 | 18.07568 | 78.28843 | 38837 ft | 489 kts | 175° |
| 2026-05-06 14:37 | 18.00819 | 78.29777 | 38843 ft | 489 kts | 175° |
| 2026-05-06 14:38 | 17.94079 | 78.30712 | 38843 ft | 489 kts | 175° |
| 2026-05-06 14:38 | 17.87336 | 78.31651 | 38847 ft | 488 kts | 174° |
| 2026-05-06 14:39 | 17.80602 | 78.32590 | 38848 ft | 488 kts | 174° |
| 2026-05-06 14:39 | 17.73871 | 78.33528 | 38857 ft | 488 kts | 174° |
| 2026-05-06 14:40 | 17.67140 | 78.34465 | 38864 ft | 487 kts | 174° |
| 2026-05-06 14:40 | 17.60461 | 78.35395 | 38876 ft | 487 kts | 174° |
| 2026-05-06 14:41 | 17.53746 | 78.36328 | 38885 ft | 487 kts | 174° |
| 2026-05-06 14:41 | 17.47035 | 78.37261 | 38884 ft | 487 kts | 174° |
| 2026-05-06 14:42 | 17.40322 | 78.38193 | 38886 ft | 486 kts | 174° |
| 2026-05-06 14:42 | 17.33611 | 78.39126 | 38886 ft | 486 kts | 174° |
| 2026-05-06 14:43 | 17.26909 | 78.40061 | 38886 ft | 486 kts | 173° |
| 2026-05-06 14:43 | 17.20337 | 78.41767 | 38886 ft | 489 kts | 162° |
| 2026-05-06 14:44 | 17.14064 | 78.44529 | 38886 ft | 490 kts | 158° |
| 2026-05-06 14:45 | 17.04712 | 78.48852 | 38886 ft | 490 kts | 158° |
| 2026-05-06 14:45 | 16.98460 | 78.51692 | 38879 ft | 489 kts | 159° |
| 2026-05-06 14:46 | 16.92213 | 78.54510 | 38872 ft | 489 kts | 159° |
| 2026-05-06 14:46 | 16.85961 | 78.57328 | 38863 ft | 489 kts | 159° |
| 2026-05-06 14:47 | 16.79754 | 78.60126 | 38859 ft | 489 kts | 159° |
| 2026-05-06 14:47 | 16.73465 | 78.62962 | 38855 ft | 489 kts | 159° |
| 2026-05-06 14:48 | 16.67258 | 78.65759 | 38848 ft | 489 kts | 159° |
| 2026-05-06 14:48 | 16.61010 | 78.68571 | 38843 ft | 489 kts | 159° |
| 2026-05-06 14:49 | 16.54757 | 78.71388 | 38850 ft | 489 kts | 159° |
| 2026-05-06 14:49 | 16.48506 | 78.74209 | 38850 ft | 489 kts | 159° |
| 2026-05-06 14:50 | 16.42262 | 78.77028 | 38841 ft | 489 kts | 159° |
| 2026-05-06 14:50 | 16.36021 | 78.79844 | 38844 ft | 488 kts | 159° |
| 2026-05-06 14:51 | 16.29787 | 78.82654 | 38859 ft | 488 kts | 159° |
| 2026-05-06 14:51 | 16.23562 | 78.85458 | 38860 ft | 487 kts | 159° |
| 2026-05-06 14:52 | 16.17341 | 78.88258 | 38847 ft | 486 kts | 158° |
| 2026-05-06 14:52 | 16.11136 | 78.91049 | 38866 ft | 486 kts | 158° |
| 2026-05-06 14:53 | 16.04926 | 78.93840 | 38844 ft | 486 kts | 158° |
| 2026-05-06 14:53 | 15.98762 | 78.96609 | 38850 ft | 485 kts | 158° |
| 2026-05-06 14:54 | 15.92567 | 78.99390 | 38855 ft | 485 kts | 158° |
| 2026-05-06 14:54 | 15.86368 | 79.02171 | 38848 ft | 485 kts | 158° |
| 2026-05-06 14:55 | 15.80177 | 79.04947 | 38847 ft | 485 kts | 158° |
| 2026-05-06 14:55 | 15.73990 | 79.07720 | 38844 ft | 484 kts | 158° |
| 2026-05-06 14:56 | 15.67811 | 79.10486 | 38846 ft | 483 kts | 158° |
| 2026-05-06 14:56 | 15.61634 | 79.13251 | 38840 ft | 482 kts | 158° |
| 2026-05-06 14:57 | 15.55476 | 79.16006 | 38840 ft | 482 kts | 158° |
| 2026-05-06 14:57 | 15.49369 | 79.18737 | 38842 ft | 481 kts | 158° |
| 2026-05-06 14:58 | 15.43228 | 79.21483 | 38837 ft | 480 kts | 158° |
| 2026-05-06 14:58 | 15.37101 | 79.24234 | 38838 ft | 480 kts | 158° |
| 2026-05-06 14:59 | 15.30980 | 79.26984 | 38840 ft | 479 kts | 158° |
| 2026-05-06 14:59 | 15.24859 | 79.29732 | 38837 ft | 479 kts | 158° |
| 2026-05-06 15:00 | 15.18738 | 79.32478 | 38836 ft | 479 kts | 158° |
| 2026-05-06 15:00 | 15.12616 | 79.35223 | 38839 ft | 479 kts | 158° |
| 2026-05-06 15:01 | 15.06500 | 79.37965 | 38833 ft | 479 kts | 158° |
| 2026-05-06 15:01 | 15.00387 | 79.40704 | 38831 ft | 479 kts | 158° |
| 2026-05-06 15:02 | 14.94221 | 79.43291 | 38828 ft | 478 kts | 161° |
| 2026-05-06 15:02 | 14.87965 | 79.45608 | 38835 ft | 478 kts | 162° |
| 2026-05-06 15:03 | 14.81698 | 79.47898 | 38830 ft | 477 kts | 162° |
| 2026-05-06 15:03 | 14.75441 | 79.50211 | 38832 ft | 477 kts | 161° |
| 2026-05-06 15:04 | 14.69192 | 79.52537 | 38829 ft | 477 kts | 161° |
| 2026-05-06 15:04 | 14.62946 | 79.54864 | 38828 ft | 477 kts | 161° |
| 2026-05-06 15:05 | 14.56748 | 79.57171 | 38828 ft | 476 kts | 161° |
| 2026-05-06 15:05 | 14.50520 | 79.59487 | 38824 ft | 476 kts | 161° |
| 2026-05-06 15:06 | 14.44975 | 79.61547 | 38822 ft | 475 kts | 161° |
| 2026-05-06 15:06 | 14.40007 | 79.63393 | 38827 ft | 474 kts | 161° |
| 2026-05-06 15:07 | 14.33811 | 79.65693 | 38824 ft | 473 kts | 161° |
| 2026-05-06 15:07 | 14.27629 | 79.67986 | 38822 ft | 472 kts | 161° |
| 2026-05-06 15:08 | 14.21451 | 79.70276 | 38825 ft | 472 kts | 161° |
| 2026-05-06 15:08 | 14.15267 | 79.72568 | 38822 ft | 473 kts | 161° |
| 2026-05-06 15:09 | 14.09067 | 79.74864 | 38821 ft | 474 kts | 161° |
| 2026-05-06 15:09 | 14.02852 | 79.77165 | 38819 ft | 475 kts | 161° |
| 2026-05-06 15:10 | 13.96947 | 79.79349 | 38819 ft | 475 kts | 161° |
| 2026-05-06 15:10 | 13.90717 | 79.81653 | 38820 ft | 476 kts | 161° |
| 2026-05-06 15:11 | 13.84484 | 79.83956 | 38822 ft | 476 kts | 161° |
| 2026-05-06 15:11 | 13.78246 | 79.86260 | 38824 ft | 476 kts | 161° |
| 2026-05-06 15:12 | 13.72003 | 79.88564 | 38822 ft | 477 kts | 161° |
| 2026-05-06 15:12 | 13.65762 | 79.90866 | 38824 ft | 477 kts | 160° |
| 2026-05-06 15:13 | 13.59517 | 79.93169 | 38816 ft | 477 kts | 160° |
| 2026-05-06 15:13 | 13.53269 | 79.95471 | 38816 ft | 476 kts | 160° |
| 2026-05-06 15:14 | 13.47064 | 79.97757 | 38819 ft | 476 kts | 160° |
| 2026-05-06 15:14 | 13.40831 | 80.00051 | 38814 ft | 476 kts | 160° |
| 2026-05-06 15:15 | 13.34591 | 80.02347 | 38811 ft | 476 kts | 160° |
| 2026-05-06 15:15 | 13.28356 | 80.04640 | 38809 ft | 476 kts | 160° |
| 2026-05-06 15:16 | 13.22113 | 80.06935 | 38809 ft | 475 kts | 161° |
| 2026-05-06 15:16 | 13.15887 | 80.09223 | 38802 ft | 475 kts | 161° |
| 2026-05-06 15:17 | 13.09699 | 80.11498 | 38803 ft | 475 kts | 161° |
| 2026-05-06 15:17 | 13.03478 | 80.13769 | 38804 ft | 474 kts | 162° |
| 2026-05-06 15:18 | 12.97028 | 80.15147 | 38806 ft | 474 kts | 174° |
| 2026-05-06 15:18 | 12.90455 | 80.15315 | 38807 ft | 473 kts | 182° |
| 2026-05-06 15:19 | 12.83874 | 80.15028 | 38808 ft | 473 kts | 182° |
| 2026-05-06 15:19 | 12.77300 | 80.14739 | 38811 ft | 473 kts | 182° |
| 2026-05-06 15:20 | 12.70727 | 80.14487 | 38814 ft | 472 kts | 182° |
| 2026-05-06 15:20 | 12.64158 | 80.14254 | 38817 ft | 472 kts | 182° |
| 2026-05-06 15:21 | 12.57594 | 80.14024 | 38818 ft | 471 kts | 182° |
| 2026-05-06 15:21 | 12.51047 | 80.13793 | 38821 ft | 470 kts | 182° |
| 2026-05-06 15:22 | 12.44513 | 80.13562 | 38822 ft | 470 kts | 182° |
| 2026-05-06 15:22 | 12.37977 | 80.13330 | 38827 ft | 469 kts | 182° |
| 2026-05-06 15:23 | 12.31459 | 80.13099 | 38827 ft | 468 kts | 182° |
| 2026-05-06 15:23 | 12.24952 | 80.12869 | 38827 ft | 468 kts | 181° |
| 2026-05-06 15:24 | 12.18442 | 80.12639 | 38836 ft | 467 kts | 181° |
| 2026-05-06 15:24 | 12.13045 | 80.12448 | 38838 ft | 467 kts | 181° |
| 2026-05-06 15:25 | 12.06541 | 80.12219 | 38837 ft | 467 kts | 181° |
| 2026-05-06 15:25 | 11.98997 | 80.11954 | 38843 ft | 467 kts | 181° |
| 2026-05-06 15:26 | 11.93559 | 80.11763 | 38845 ft | 466 kts | 181° |
| 2026-05-06 15:26 | 11.87073 | 80.11535 | 38840 ft | 466 kts | 181° |
| 2026-05-06 15:27 | 11.80589 | 80.11356 | 38841 ft | 466 kts | 180° |
| 2026-05-06 15:27 | 11.74100 | 80.11242 | 38847 ft | 466 kts | 180° |
| 2026-05-06 15:28 | 11.67661 | 80.11130 | 38845 ft | 466 kts | 180° |
| 2026-05-06 15:28 | 11.61172 | 80.11009 | 38843 ft | 466 kts | 180° |
| 2026-05-06 15:29 | 11.54692 | 80.10883 | 38844 ft | 466 kts | 180° |
| 2026-05-06 15:29 | 11.48208 | 80.10757 | 38847 ft | 466 kts | 180° |
| 2026-05-06 15:30 | 11.41725 | 80.10631 | 38846 ft | 466 kts | 180° |
| 2026-05-06 15:30 | 11.35244 | 80.10505 | 38846 ft | 466 kts | 180° |
| 2026-05-06 15:31 | 11.28760 | 80.10380 | 38846 ft | 466 kts | 180° |
| 2026-05-06 15:31 | 11.22274 | 80.10254 | 38850 ft | 466 kts | 180° |
| 2026-05-06 15:32 | 11.12549 | 80.10066 | 38847 ft | 466 kts | 180° |
| 2026-05-06 15:32 | 11.06059 | 80.09941 | 38849 ft | 466 kts | 180° |
| 2026-05-06 15:33 | 10.99574 | 80.09816 | 38846 ft | 466 kts | 180° |
| 2026-05-06 15:33 | 10.93082 | 80.09691 | 38853 ft | 466 kts | 180° |
| 2026-05-06 15:34 | 10.86589 | 80.09566 | 38851 ft | 467 kts | 180° |
| 2026-05-06 15:34 | 10.80138 | 80.09443 | 38848 ft | 467 kts | 180° |
| 2026-05-06 15:35 | 10.73638 | 80.09319 | 38853 ft | 467 kts | 180° |
| 2026-05-06 15:35 | 10.67140 | 80.09205 | 38847 ft | 467 kts | 180° |
| 2026-05-06 15:36 | 10.60636 | 80.09108 | 38854 ft | 467 kts | 180° |
| 2026-05-06 15:36 | 10.54132 | 80.09012 | 38848 ft | 468 kts | 180° |
| 2026-05-06 15:37 | 10.47621 | 80.08914 | 38850 ft | 468 kts | 180° |
| 2026-05-06 15:37 | 10.41102 | 80.08815 | 38852 ft | 468 kts | 180° |
| 2026-05-06 15:38 | 10.34626 | 80.08717 | 38851 ft | 469 kts | 180° |
| 2026-05-06 15:38 | 10.28103 | 80.08619 | 38855 ft | 469 kts | 180° |
| 2026-05-06 15:39 | 10.21575 | 80.08520 | 38851 ft | 469 kts | 180° |
| 2026-05-06 15:39 | 10.15038 | 80.08422 | 38846 ft | 470 kts | 180° |
| 2026-05-06 15:40 | 10.08497 | 80.08325 | 38854 ft | 470 kts | 180° |
| 2026-05-06 15:40 | 10.01951 | 80.08226 | 38852 ft | 471 kts | 180° |
| 2026-05-06 15:41 | 9.98686 | 80.08422 | 38831 ft | 469 kts | 167° |
| 2026-05-06 15:41 | 9.95540 | 80.09254 | 38865 ft | 467 kts | 163° |
| 2026-05-06 15:41 | 9.89307 | 80.11163 | 38862 ft | 469 kts | 163° |
| 2026-05-06 15:42 | 9.83049 | 80.13077 | 38855 ft | 471 kts | 163° |
| 2026-05-06 15:42 | 9.76751 | 80.14937 | 38856 ft | 472 kts | 164° |
| 2026-05-06 15:43 | 9.70433 | 80.16771 | 38857 ft | 473 kts | 164° |
| 2026-05-06 15:43 | 9.64100 | 80.18601 | 38856 ft | 473 kts | 164° |
| 2026-05-06 15:44 | 9.57954 | 80.20379 | 38856 ft | 473 kts | 164° |
| 2026-05-06 15:44 | 9.51682 | 80.22194 | 38859 ft | 473 kts | 164° |
| 2026-05-06 15:45 | 9.45364 | 80.24023 | 38859 ft | 472 kts | 164° |
| 2026-05-06 15:45 | 9.39044 | 80.25852 | 38859 ft | 472 kts | 164° |
| 2026-05-06 15:46 | 9.32731 | 80.27678 | 38857 ft | 472 kts | 164° |
| 2026-05-06 15:46 | 9.26416 | 80.29503 | 38863 ft | 472 kts | 164° |
| 2026-05-06 15:47 | 9.20102 | 80.31328 | 38861 ft | 472 kts | 164° |
| 2026-05-06 15:47 | 9.13784 | 80.33154 | 38860 ft | 472 kts | 164° |
| 2026-05-06 15:48 | 9.07453 | 80.34982 | 38863 ft | 473 kts | 164° |
| 2026-05-06 15:48 | 9.01120 | 80.36810 | 38866 ft | 473 kts | 164° |
| 2026-05-06 15:49 | 8.94777 | 80.38640 | 38864 ft | 474 kts | 164° |
| 2026-05-06 15:49 | 8.88426 | 80.40473 | 38865 ft | 475 kts | 164° |
| 2026-05-06 15:50 | 8.82063 | 80.42308 | 38869 ft | 476 kts | 164° |
| 2026-05-06 15:50 | 8.75731 | 80.44133 | 38870 ft | 477 kts | 164° |
| 2026-05-06 15:51 | 8.69351 | 80.45972 | 38871 ft | 477 kts | 164° |
| 2026-05-06 15:51 | 8.62953 | 80.47814 | 38867 ft | 478 kts | 164° |
| 2026-05-06 15:52 | 8.56551 | 80.49658 | 38865 ft | 478 kts | 164° |
| 2026-05-06 15:52 | 8.50141 | 80.51503 | 38866 ft | 479 kts | 164° |
| 2026-05-06 15:53 | 8.43723 | 80.53350 | 38868 ft | 479 kts | 164° |
| 2026-05-06 15:53 | 8.37346 | 80.55185 | 38867 ft | 480 kts | 163° |
| 2026-05-06 15:54 | 8.30920 | 80.57033 | 38871 ft | 480 kts | 163° |
| 2026-05-06 15:54 | 8.24485 | 80.58883 | 38870 ft | 481 kts | 163° |
| 2026-05-06 15:55 | 8.18055 | 80.60730 | 38867 ft | 481 kts | 163° |
| 2026-05-06 15:55 | 8.11620 | 80.62579 | 38873 ft | 481 kts | 163° |
| 2026-05-06 15:56 | 8.05180 | 80.64428 | 38843 ft | 481 kts | 163° |
| 2026-05-06 15:56 | 8.01933 | 80.65361 | 38185 ft | 489 kts | 163° |
| 2026-05-06 15:56 | 7.98665 | 80.66299 | 37553 ft | 486 kts | 163° |
| 2026-05-06 15:57 | 7.95416 | 80.67232 | 36888 ft | 484 kts | 163° |
| 2026-05-06 15:57 | 7.92180 | 80.68161 | 36166 ft | 484 kts | 163° |
| 2026-05-06 15:57 | 7.88935 | 80.69092 | 35404 ft | 485 kts | 163° |
| 2026-05-06 15:57 | 7.85719 | 80.70015 | 34525 ft | 489 kts | 163° |
| 2026-05-06 15:58 | 7.82431 | 80.70958 | 33572 ft | 494 kts | 163° |
| 2026-05-06 15:58 | 7.79108 | 80.71911 | 32476 ft | 499 kts | 163° |
| 2026-05-06 15:58 | 7.75753 | 80.72874 | 31403 ft | 503 kts | 163° |
| 2026-05-06 15:58 | 7.72370 | 80.73844 | 30494 ft | 504 kts | 163° |
| 2026-05-06 15:59 | 7.69008 | 80.74808 | 29729 ft | 500 kts | 163° |
| 2026-05-06 15:59 | 7.65676 | 80.75763 | 28871 ft | 496 kts | 163° |
| 2026-05-06 15:59 | 7.62374 | 80.76709 | 28084 ft | 491 kts | 163° |
| 2026-05-06 15:59 | 7.59132 | 80.77638 | 27338 ft | 473 kts | 164° |
| 2026-05-06 16:00 | 7.56039 | 80.78523 | 26725 ft | 457 kts | 164° |
| 2026-05-06 16:00 | 7.52972 | 80.79401 | 25979 ft | 460 kts | 164° |
| 2026-05-06 16:00 | 7.49881 | 80.80287 | 25274 ft | 465 kts | 164° |
| 2026-05-06 16:00 | 7.46756 | 80.81182 | 24563 ft | 467 kts | 164° |
| 2026-05-06 16:01 | 7.43640 | 80.82075 | 23853 ft | 465 kts | 164° |
| 2026-05-06 16:01 | 7.40540 | 80.82963 | 23089 ft | 462 kts | 164° |
| 2026-05-06 16:01 | 7.37456 | 80.83846 | 22313 ft | 459 kts | 165° |
| 2026-05-06 16:01 | 7.34400 | 80.84720 | 21604 ft | 454 kts | 165° |
| 2026-05-06 16:02 | 7.31373 | 80.85587 | 20923 ft | 450 kts | 165° |
| 2026-05-06 16:02 | 7.28382 | 80.86444 | 20251 ft | 445 kts | 165° |
| 2026-05-06 16:02 | 7.25414 | 80.87292 | 19585 ft | 442 kts | 165° |
| 2026-05-06 16:02 | 7.22465 | 80.88136 | 18893 ft | 439 kts | 165° |
| 2026-05-06 16:03 | 7.19538 | 80.88975 | 18237 ft | 436 kts | 165° |
| 2026-05-06 16:03 | 7.16631 | 80.89807 | 17497 ft | 433 kts | 165° |
| 2026-05-06 16:03 | 7.13741 | 80.90633 | 16821 ft | 429 kts | 165° |
| 2026-05-06 16:03 | 7.10920 | 80.91439 | 16160 ft | 425 kts | 165° |